Portada
METAR-TAF:

METAR-TAF

Aeropuertos :

Versailles, Ohio, Estados Unidos

latitud: 40-12-16N, longitud: 084-31-55W, altitud: 307 m

Observación

El informe se hizo hace 49 minutos, a las 15:10 UTC
Viento 5 kt del oeste-noroeste
Temperatura 29°C
Humedad 52%
Presión 1027 hPa
Visibilidad: 16.1 km
Nubes dispersas a una altura de 5000 ft

METAR: KVES 201510Z AUTO 29005KT 10SM SCT050 29/18 A3033 RMK AO2

Hora: 11:59 (15:59 UTC)


TAF: falta

Observaciones y pronósticos meteorológicos de más de 4000 aeropuertos (mensajes METAR y TAF).

Los puntos amarillos y rojos representan las estaciones disponibles.

Ponga el ratón en el punto deseado para ver el nombre de la estación.

Haga clic para ver las observaciones y los pronósticos meteorológicos.

Para cambiar el mapa : haga clic en los botones verdes con una cruz de color negro para hacer un zoom, en el botón verde con un guión para alejar o en las flechas verdes para mapas adyacentes.


METAR-TAF: